sensor_id;sensor_type;location;lat;lon;timestamp;P1;durP1;ratioP1;P2;durP2;ratioP2
10687;SDS011;5392;42.688;23.298;2023-01-25T00:00:10;4.47;;;3.72;;
10687;SDS011;5392;42.688;23.298;2023-01-25T00:02:37;4.93;;;3.58;;
10687;SDS011;5392;42.688;23.298;2023-01-25T00:05:04;4.68;;;3.47;;
10687;SDS011;5392;42.688;23.298;2023-01-25T00:07:32;3.47;;;3.00;;
10687;SDS011;5392;42.688;23.298;2023-01-25T00:10:00;4.10;;;3.65;;
10687;SDS011;5392;42.688;23.298;2023-01-25T00:12:26;3.05;;;2.70;;
10687;SDS011;5392;42.688;23.298;2023-01-25T00:14:53;5.28;;;3.20;;
10687;SDS011;5392;42.688;23.298;2023-01-25T00:17:19;3.75;;;2.47;;
10687;SDS011;5392;42.688;23.298;2023-01-25T00:19:46;5.20;;;3.92;;
10687;SDS011;5392;42.688;23.298;2023-01-25T00:22:16;4.55;;;3.28;;
10687;SDS011;5392;42.688;23.298;2023-01-25T00:24:43;4.28;;;3.30;;
10687;SDS011;5392;42.688;23.298;2023-01-25T00:27:09;4.75;;;4.00;;
10687;SDS011;5392;42.688;23.298;2023-01-25T00:29:36;4.63;;;4.00;;
10687;SDS011;5392;42.688;23.298;2023-01-25T00:34:54;8.57;;;6.80;;
10687;SDS011;5392;42.688;23.298;2023-01-25T00:37:37;5.53;;;4.13;;
10687;SDS011;5392;42.688;23.298;2023-01-25T00:40:08;5.47;;;4.00;;
10687;SDS011;5392;42.688;23.298;2023-01-25T00:42:36;5.75;;;3.88;;
10687;SDS011;5392;42.688;23.298;2023-01-25T00:45:04;3.85;;;3.35;;
10687;SDS011;5392;42.688;23.298;2023-01-25T00:47:32;4.22;;;3.40;;
10687;SDS011;5392;42.688;23.298;2023-01-25T00:49:58;3.80;;;3.25;;
10687;SDS011;5392;42.688;23.298;2023-01-25T00:52:25;5.43;;;3.30;;
10687;SDS011;5392;42.688;23.298;2023-01-25T00:54:54;2.88;;;2.60;;
10687;SDS011;5392;42.688;23.298;2023-01-25T00:57:21;4.03;;;2.72;;
10687;SDS011;5392;42.688;23.298;2023-01-25T00:59:48;3.45;;;3.05;;
10687;SDS011;5392;42.688;23.298;2023-01-25T01:02:15;2.95;;;2.63;;
10687;SDS011;5392;42.688;23.298;2023-01-25T01:04:41;3.25;;;2.40;;
10687;SDS011;5392;42.688;23.298;2023-01-25T01:07:10;2.88;;;2.58;;
10687;SDS011;5392;42.688;23.298;2023-01-25T01:09:38;4.20;;;3.05;;
10687;SDS011;5392;42.688;23.298;2023-01-25T01:12:05;5.03;;;3.38;;
10687;SDS011;5392;42.688;23.298;2023-01-25T01:14:32;4.05;;;3.60;;
10687;SDS011;5392;42.688;23.298;2023-01-25T01:16:59;4.00;;;2.92;;
10687;SDS011;5392;42.688;23.298;2023-01-25T01:19:26;4.32;;;3.17;;
10687;SDS011;5392;42.688;23.298;2023-01-25T01:21:52;5.88;;;3.60;;
10687;SDS011;5392;42.688;23.298;2023-01-25T01:24:19;4.57;;;3.88;;
10687;SDS011;5392;42.688;23.298;2023-01-25T01:26:46;4.85;;;4.35;;
10687;SDS011;5392;42.688;23.298;2023-01-25T01:29:13;6.00;;;5.40;;
10687;SDS011;5392;42.688;23.298;2023-01-25T01:31:40;9.50;;;7.07;;
10687;SDS011;5392;42.688;23.298;2023-01-25T01:34:09;5.18;;;4.50;;
10687;SDS011;5392;42.688;23.298;2023-01-25T01:36:38;8.63;;;6.10;;
10687;SDS011;5392;42.688;23.298;2023-01-25T01:39:05;5.10;;;4.47;;
10687;SDS011;5392;42.688;23.298;2023-01-25T01:41:32;6.93;;;4.00;;
10687;SDS011;5392;42.688;23.298;2023-01-25T01:43:59;6.95;;;4.63;;
10687;SDS011;5392;42.688;23.298;2023-01-25T01:49:01;5.57;;;4.55;;
10687;SDS011;5392;42.688;23.298;2023-01-25T01:54:15;6.80;;;5.63;;
10687;SDS011;5392;42.688;23.298;2023-01-25T01:59:19;5.80;;;3.95;;
10687;SDS011;5392;42.688;23.298;2023-01-25T02:01:51;5.43;;;4.45;;
10687;SDS011;5392;42.688;23.298;2023-01-25T02:04:19;5.63;;;4.28;;
10687;SDS011;5392;42.688;23.298;2023-01-25T02:06:50;5.45;;;4.00;;
10687;SDS011;5392;42.688;23.298;2023-01-25T02:09:23;5.25;;;4.28;;
10687;SDS011;5392;42.688;23.298;2023-01-25T02:11:51;10.68;;;7.47;;
10687;SDS011;5392;42.688;23.298;2023-01-25T02:14:19;5.78;;;4.82;;
10687;SDS011;5392;42.688;23.298;2023-01-25T02:16:46;10.90;;;6.03;;
10687;SDS011;5392;42.688;23.298;2023-01-25T02:19:16;2.03;;;1.23;;
10687;SDS011;5392;42.688;23.298;2023-01-25T02:21:59;0.90;;;0.80;;
10687;SDS011;5392;42.688;23.298;2023-01-25T02:24:33;1.00;;;0.80;;
10687;SDS011;5392;42.688;23.298;2023-01-25T02:27:00;0.70;;;0.70;;
10687;SDS011;5392;42.688;23.298;2023-01-25T02:29:28;1.33;;;0.75;;
10687;SDS011;5392;42.688;23.298;2023-01-25T02:31:59;0.80;;;0.80;;
10687;SDS011;5392;42.688;23.298;2023-01-25T02:34:29;2.00;;;0.70;;
10687;SDS011;5392;42.688;23.298;2023-01-25T02:36:56;0.68;;;0.63;;
10687;SDS011;5392;42.688;23.298;2023-01-25T02:39:23;1.08;;;0.60;;
10687;SDS011;5392;42.688;23.298;2023-01-25T02:41:51;1.42;;;0.63;;
10687;SDS011;5392;42.688;23.298;2023-01-25T02:44:20;0.50;;;0.50;;
10687;SDS011;5392;42.688;23.298;2023-01-25T02:46:50;0.80;;;0.73;;
10687;SDS011;5392;42.688;23.298;2023-01-25T02:49:17;1.88;;;1.05;;
10687;SDS011;5392;42.688;23.298;2023-01-25T02:51:46;1.85;;;1.00;;
10687;SDS011;5392;42.688;23.298;2023-01-25T02:54:15;1.33;;;0.85;;
10687;SDS011;5392;42.688;23.298;2023-01-25T02:56:44;0.82;;;0.70;;
10687;SDS011;5392;42.688;23.298;2023-01-25T02:59:10;1.15;;;1.05;;
10687;SDS011;5392;42.688;23.298;2023-01-25T03:01:39;0.77;;;0.77;;
10687;SDS011;5392;42.688;23.298;2023-01-25T03:04:09;0.98;;;0.98;;
10687;SDS011;5392;42.688;23.298;2023-01-25T03:06:36;2.17;;;0.70;;
10687;SDS011;5392;42.688;23.298;2023-01-25T03:09:05;0.80;;;0.73;;
10687;SDS011;5392;42.688;23.298;2023-01-25T03:11:33;0.90;;;0.90;;
10687;SDS011;5392;42.688;23.298;2023-01-25T03:14:00;0.70;;;0.70;;
10687;SDS011;5392;42.688;23.298;2023-01-25T03:16:27;2.50;;;0.80;;
10687;SDS011;5392;42.688;23.298;2023-01-25T03:18:57;1.63;;;0.70;;
10687;SDS011;5392;42.688;23.298;2023-01-25T03:21:25;1.38;;;1.13;;
10687;SDS011;5392;42.688;23.298;2023-01-25T03:23:54;0.80;;;0.80;;
10687;SDS011;5392;42.688;23.298;2023-01-25T03:26:22;2.90;;;1.27;;
10687;SDS011;5392;42.688;23.298;2023-01-25T03:28:50;1.15;;;1.02;;
10687;SDS011;5392;42.688;23.298;2023-01-25T03:31:17;1.40;;;1.02;;
10687;SDS011;5392;42.688;23.298;2023-01-25T03:33:45;1.42;;;0.90;;
10687;SDS011;5392;42.688;23.298;2023-01-25T03:36:12;2.33;;;1.60;;
10687;SDS011;5392;42.688;23.298;2023-01-25T03:38:39;2.22;;;1.08;;
10687;SDS011;5392;42.688;23.298;2023-01-25T03:41:06;1.52;;;1.40;;
10687;SDS011;5392;42.688;23.298;2023-01-25T03:43:34;2.53;;;1.75;;
10687;SDS011;5392;42.688;23.298;2023-01-25T03:46:00;1.40;;;1.30;;
10687;SDS011;5392;42.688;23.298;2023-01-25T03:48:28;2.70;;;1.80;;
10687;SDS011;5392;42.688;23.298;2023-01-25T03:50:56;2.10;;;1.55;;
10687;SDS011;5392;42.688;23.298;2023-01-25T03:53:25;1.48;;;1.27;;
10687;SDS011;5392;42.688;23.298;2023-01-25T03:55:57;1.58;;;1.48;;
10687;SDS011;5392;42.688;23.298;2023-01-25T03:58:35;2.17;;;1.20;;
10687;SDS011;5392;42.688;23.298;2023-01-25T04:01:03;3.85;;;1.33;;
10687;SDS011;5392;42.688;23.298;2023-01-25T04:03:31;1.40;;;1.27;;
10687;SDS011;5392;42.688;23.298;2023-01-25T04:05:59;1.67;;;1.27;;
10687;SDS011;5392;42.688;23.298;2023-01-25T04:08:27;2.53;;;1.42;;
10687;SDS011;5392;42.688;23.298;2023-01-25T04:10:55;2.47;;;1.58;;
10687;SDS011;5392;42.688;23.298;2023-01-25T04:13:25;1.45;;;1.33;;
10687;SDS011;5392;42.688;23.298;2023-01-25T04:15:53;2.13;;;1.38;;
10687;SDS011;5392;42.688;23.298;2023-01-25T04:18:20;2.20;;;1.65;;
10687;SDS011;5392;42.688;23.298;2023-01-25T04:20:54;2.88;;;2.03;;
10687;SDS011;5392;42.688;23.298;2023-01-25T04:23:22;2.20;;;1.60;;
10687;SDS011;5392;42.688;23.298;2023-01-25T04:25:54;2.10;;;1.73;;
10687;SDS011;5392;42.688;23.298;2023-01-25T04:28:30;2.95;;;1.80;;
10687;SDS011;5392;42.688;23.298;2023-01-25T04:30:58;1.73;;;1.60;;
10687;SDS011;5392;42.688;23.298;2023-01-25T04:33:25;1.75;;;1.40;;
10687;SDS011;5392;42.688;23.298;2023-01-25T04:35:52;1.80;;;1.70;;
10687;SDS011;5392;42.688;23.298;2023-01-25T04:38:19;2.65;;;2.28;;
10687;SDS011;5392;42.688;23.298;2023-01-25T04:40:46;1.92;;;1.80;;
10687;SDS011;5392;42.688;23.298;2023-01-25T04:43:14;3.83;;;2.00;;
10687;SDS011;5392;42.688;23.298;2023-01-25T04:45:41;3.40;;;2.28;;
10687;SDS011;5392;42.688;23.298;2023-01-25T04:48:09;2.20;;;2.08;;
10687;SDS011;5392;42.688;23.298;2023-01-25T04:50:37;2.22;;;1.85;;
10687;SDS011;5392;42.688;23.298;2023-01-25T04:53:07;4.35;;;2.30;;
10687;SDS011;5392;42.688;23.298;2023-01-25T04:55:35;4.90;;;2.60;;
10687;SDS011;5392;42.688;23.298;2023-01-25T04:58:02;4.05;;;2.80;;
10687;SDS011;5392;42.688;23.298;2023-01-25T05:00:30;4.53;;;2.67;;
10687;SDS011;5392;42.688;23.298;2023-01-25T05:02:57;3.00;;;2.72;;
10687;SDS011;5392;42.688;23.298;2023-01-25T05:05:24;4.22;;;3.20;;
10687;SDS011;5392;42.688;23.298;2023-01-25T05:07:51;2.25;;;2.05;;
10687;SDS011;5392;42.688;23.298;2023-01-25T05:10:18;3.42;;;3.13;;
10687;SDS011;5392;42.688;23.298;2023-01-25T05:12:45;5.13;;;3.72;;
10687;SDS011;5392;42.688;23.298;2023-01-25T05:15:11;1.92;;;1.75;;
10687;SDS011;5392;42.688;23.298;2023-01-25T05:17:39;2.80;;;1.88;;
10687;SDS011;5392;42.688;23.298;2023-01-25T05:20:06;2.63;;;1.90;;
10687;SDS011;5392;42.688;23.298;2023-01-25T05:22:33;2.80;;;2.00;;
10687;SDS011;5392;42.688;23.298;2023-01-25T05:25:00;2.80;;;2.55;;
10687;SDS011;5392;42.688;23.298;2023-01-25T05:27:29;2.03;;;1.88;;
10687;SDS011;5392;42.688;23.298;2023-01-25T05:29:56;3.05;;;1.90;;
10687;SDS011;5392;42.688;23.298;2023-01-25T05:32:23;2.63;;;2.42;;
10687;SDS011;5392;42.688;23.298;2023-01-25T05:34:50;2.08;;;1.90;;
10687;SDS011;5392;42.688;23.298;2023-01-25T05:37:17;3.20;;;2.45;;
10687;SDS011;5392;42.688;23.298;2023-01-25T05:39:45;3.83;;;3.10;;
10687;SDS011;5392;42.688;23.298;2023-01-25T05:42:13;3.95;;;3.17;;
10687;SDS011;5392;42.688;23.298;2023-01-25T05:44:42;4.57;;;3.25;;
10687;SDS011;5392;42.688;23.298;2023-01-25T05:47:13;4.53;;;3.35;;
10687;SDS011;5392;42.688;23.298;2023-01-25T05:49:42;4.90;;;2.90;;
10687;SDS011;5392;42.688;23.298;2023-01-25T05:52:12;4.18;;;2.58;;
10687;SDS011;5392;42.688;23.298;2023-01-25T05:54:40;3.65;;;3.35;;
10687;SDS011;5392;42.688;23.298;2023-01-25T05:57:07;4.40;;;3.75;;
10687;SDS011;5392;42.688;23.298;2023-01-25T05:59:35;2.35;;;2.13;;
10687;SDS011;5392;42.688;23.298;2023-01-25T06:02:02;3.55;;;2.15;;
10687;SDS011;5392;42.688;23.298;2023-01-25T06:04:29;2.92;;;1.55;;
10687;SDS011;5392;42.688;23.298;2023-01-25T06:06:55;2.97;;;1.73;;
10687;SDS011;5392;42.688;23.298;2023-01-25T06:09:22;3.63;;;1.75;;
10687;SDS011;5392;42.688;23.298;2023-01-25T06:11:49;3.53;;;1.77;;
10687;SDS011;5392;42.688;23.298;2023-01-25T06:14:16;3.42;;;2.35;;
10687;SDS011;5392;42.688;23.298;2023-01-25T06:16:43;2.15;;;1.73;;
10687;SDS011;5392;42.688;23.298;2023-01-25T06:19:11;2.17;;;1.90;;
10687;SDS011;5392;42.688;23.298;2023-01-25T06:21:39;2.85;;;2.40;;
10687;SDS011;5392;42.688;23.298;2023-01-25T06:24:06;2.08;;;1.90;;
10687;SDS011;5392;42.688;23.298;2023-01-25T06:26:33;4.50;;;2.85;;
10687;SDS011;5392;42.688;23.298;2023-01-25T06:29:00;2.70;;;2.40;;
10687;SDS011;5392;42.688;23.298;2023-01-25T06:31:26;2.53;;;2.17;;
10687;SDS011;5392;42.688;23.298;2023-01-25T06:33:53;3.92;;;3.00;;
10687;SDS011;5392;42.688;23.298;2023-01-25T06:36:20;2.90;;;2.53;;
10687;SDS011;5392;42.688;23.298;2023-01-25T06:38:49;2.83;;;2.50;;
10687;SDS011;5392;42.688;23.298;2023-01-25T06:41:16;2.97;;;2.72;;
10687;SDS011;5392;42.688;23.298;2023-01-25T06:43:45;2.83;;;2.15;;
10687;SDS011;5392;42.688;23.298;2023-01-25T06:46:13;3.95;;;2.78;;
10687;SDS011;5392;42.688;23.298;2023-01-25T06:48:42;2.58;;;1.88;;
10687;SDS011;5392;42.688;23.298;2023-01-25T06:51:10;3.17;;;2.55;;
10687;SDS011;5392;42.688;23.298;2023-01-25T06:53:39;2.72;;;2.22;;
10687;SDS011;5392;42.688;23.298;2023-01-25T06:56:09;2.42;;;1.98;;
10687;SDS011;5392;42.688;23.298;2023-01-25T06:58:40;3.28;;;1.50;;
10687;SDS011;5392;42.688;23.298;2023-01-25T07:03:38;5.45;;;2.70;;
10687;SDS011;5392;42.688;23.298;2023-01-25T07:06:06;2.53;;;1.90;;
10687;SDS011;5392;42.688;23.298;2023-01-25T07:08:35;4.25;;;3.00;;
10687;SDS011;5392;42.688;23.298;2023-01-25T07:11:03;2.53;;;1.73;;
10687;SDS011;5392;42.688;23.298;2023-01-25T07:13:36;3.05;;;1.63;;
10687;SDS011;5392;42.688;23.298;2023-01-25T07:16:04;3.28;;;2.47;;
10687;SDS011;5392;42.688;23.298;2023-01-25T07:18:32;3.22;;;1.73;;
10687;SDS011;5392;42.688;23.298;2023-01-25T07:21:07;2.78;;;1.27;;
10687;SDS011;5392;42.688;23.298;2023-01-25T07:23:42;1.80;;;1.65;;
10687;SDS011;5392;42.688;23.298;2023-01-25T07:26:13;2.75;;;1.83;;
10687;SDS011;5392;42.688;23.298;2023-01-25T07:28:45;1.90;;;1.63;;
10687;SDS011;5392;42.688;23.298;2023-01-25T07:31:13;1.40;;;1.30;;
10687;SDS011;5392;42.688;23.298;2023-01-25T07:33:41;1.55;;;1.20;;
10687;SDS011;5392;42.688;23.298;2023-01-25T07:36:09;1.50;;;1.08;;
10687;SDS011;5392;42.688;23.298;2023-01-25T07:38:36;3.13;;;1.80;;
10687;SDS011;5392;42.688;23.298;2023-01-25T07:41:03;1.77;;;1.13;;
10687;SDS011;5392;42.688;23.298;2023-01-25T07:43:30;1.27;;;0.88;;
10687;SDS011;5392;42.688;23.298;2023-01-25T07:46:16;0.80;;;0.80;;
10687;SDS011;5392;42.688;23.298;2023-01-25T07:48:46;0.63;;;0.63;;
10687;SDS011;5392;42.688;23.298;2023-01-25T07:51:16;0.70;;;0.70;;
10687;SDS011;5392;42.688;23.298;2023-01-25T07:53:57;2.15;;;1.15;;
10687;SDS011;5392;42.688;23.298;2023-01-25T07:56:27;0.93;;;0.93;;
10687;SDS011;5392;42.688;23.298;2023-01-25T07:58:56;3.75;;;1.20;;
10687;SDS011;5392;42.688;23.298;2023-01-25T08:01:25;1.85;;;0.93;;
10687;SDS011;5392;42.688;23.298;2023-01-25T08:03:54;1.85;;;1.48;;
10687;SDS011;5392;42.688;23.298;2023-01-25T08:06:22;1.48;;;1.13;;
10687;SDS011;5392;42.688;23.298;2023-01-25T08:08:53;1.42;;;1.33;;
10687;SDS011;5392;42.688;23.298;2023-01-25T08:11:30;4.45;;;2.00;;
10687;SDS011;5392;42.688;23.298;2023-01-25T08:13:57;2.78;;;2.53;;
10687;SDS011;5392;42.688;23.298;2023-01-25T08:16:25;3.83;;;2.60;;
10687;SDS011;5392;42.688;23.298;2023-01-25T08:18:56;2.72;;;1.90;;
10687;SDS011;5392;42.688;23.298;2023-01-25T08:21:25;5.00;;;3.22;;
10687;SDS011;5392;42.688;23.298;2023-01-25T08:23:58;2.53;;;2.33;;
10687;SDS011;5392;42.688;23.298;2023-01-25T08:26:26;3.55;;;3.08;;
10687;SDS011;5392;42.688;23.298;2023-01-25T08:28:54;3.50;;;2.65;;
10687;SDS011;5392;42.688;23.298;2023-01-25T08:31:22;4.93;;;3.17;;
10687;SDS011;5392;42.688;23.298;2023-01-25T08:33:51;2.10;;;2.00;;
10687;SDS011;5392;42.688;23.298;2023-01-25T08:36:18;5.20;;;3.25;;
10687;SDS011;5392;42.688;23.298;2023-01-25T08:38:46;5.30;;;4.20;;
10687;SDS011;5392;42.688;23.298;2023-01-25T08:41:14;4.68;;;4.22;;
10687;SDS011;5392;42.688;23.298;2023-01-25T08:43:43;3.97;;;3.42;;
10687;SDS011;5392;42.688;23.298;2023-01-25T08:46:10;4.20;;;2.83;;
10687;SDS011;5392;42.688;23.298;2023-01-25T08:48:38;6.47;;;4.57;;
10687;SDS011;5392;42.688;23.298;2023-01-25T08:51:08;6.53;;;4.57;;
10687;SDS011;5392;42.688;23.298;2023-01-25T08:53:37;2.60;;;2.40;;
10687;SDS011;5392;42.688;23.298;2023-01-25T08:56:05;8.00;;;4.47;;
10687;SDS011;5392;42.688;23.298;2023-01-25T08:58:33;4.72;;;3.28;;
10687;SDS011;5392;42.688;23.298;2023-01-25T09:01:03;7.00;;;3.83;;
10687;SDS011;5392;42.688;23.298;2023-01-25T09:03:35;3.55;;;2.85;;
10687;SDS011;5392;42.688;23.298;2023-01-25T09:06:03;4.97;;;4.47;;
10687;SDS011;5392;42.688;23.298;2023-01-25T09:08:32;4.40;;;3.55;;
10687;SDS011;5392;42.688;23.298;2023-01-25T09:11:05;4.88;;;4.40;;
10687;SDS011;5392;42.688;23.298;2023-01-25T09:13:34;6.18;;;5.30;;
10687;SDS011;5392;42.688;23.298;2023-01-25T09:16:02;3.15;;;2.80;;
10687;SDS011;5392;42.688;23.298;2023-01-25T09:18:32;5.93;;;5.32;;
10687;SDS011;5392;42.688;23.298;2023-01-25T09:23:53;5.80;;;5.22;;
10687;SDS011;5392;42.688;23.298;2023-01-25T09:26:37;4.20;;;3.78;;
10687;SDS011;5392;42.688;23.298;2023-01-25T09:29:08;6.07;;;5.47;;
10687;SDS011;5392;42.688;23.298;2023-01-25T09:31:36;4.55;;;3.80;;
10687;SDS011;5392;42.688;23.298;2023-01-25T09:34:11;6.47;;;3.90;;
10687;SDS011;5392;42.688;23.298;2023-01-25T09:36:39;4.68;;;4.20;;
10687;SDS011;5392;42.688;23.298;2023-01-25T09:39:06;4.72;;;4.30;;
10687;SDS011;5392;42.688;23.298;2023-01-25T09:55:47;3.35;;;3.00;;
10687;SDS011;5392;42.688;23.298;2023-01-25T09:58:34;3.15;;;2.90;;
10687;SDS011;5392;42.688;23.298;2023-01-25T10:01:08;2.95;;;2.70;;
10687;SDS011;5392;42.688;23.298;2023-01-25T10:04:25;4.03;;;3.72;;
10687;SDS011;5392;42.688;23.298;2023-01-25T10:07:13;3.78;;;3.45;;
10687;SDS011;5392;42.688;23.298;2023-01-25T10:09:46;4.63;;;4.28;;
10687;SDS011;5392;42.688;23.298;2023-01-25T10:12:21;2.25;;;1.45;;
10687;SDS011;5392;42.688;23.298;2023-01-25T10:14:50;4.18;;;3.17;;
10687;SDS011;5392;42.688;23.298;2023-01-25T10:19:56;4.07;;;3.67;;
10687;SDS011;5392;42.688;23.298;2023-01-25T10:22:35;4.25;;;3.95;;
10687;SDS011;5392;42.688;23.298;2023-01-25T10:32:57;3.55;;;3.25;;
10687;SDS011;5392;42.688;23.298;2023-01-25T10:35:28;2.78;;;1.63;;
10687;SDS011;5392;42.688;23.298;2023-01-25T10:38:52;3.88;;;2.42;;
10687;SDS011;5392;42.688;23.298;2023-01-25T10:41:04;4.55;;;1.42;;
10687;SDS011;5392;42.688;23.298;2023-01-25T10:43:36;4.78;;;3.33;;
10687;SDS011;5392;42.688;23.298;2023-01-25T10:46:16;1.83;;;1.73;;
10687;SDS011;5392;42.688;23.298;2023-01-25T10:48:45;2.83;;;2.63;;
10687;SDS011;5392;42.688;23.298;2023-01-25T10:54:12;2.35;;;1.30;;
10687;SDS011;5392;42.688;23.298;2023-01-25T10:56:41;2.05;;;1.95;;
10687;SDS011;5392;42.688;23.298;2023-01-25T10:59:15;2.80;;;2.50;;
10687;SDS011;5392;42.688;23.298;2023-01-25T11:01:43;2.58;;;2.38;;
10687;SDS011;5392;42.688;23.298;2023-01-25T11:04:21;3.75;;;2.78;;
10687;SDS011;5392;42.688;23.298;2023-01-25T11:06:50;2.20;;;1.88;;
10687;SDS011;5392;42.688;23.298;2023-01-25T11:11:55;1.80;;;1.70;;
10687;SDS011;5392;42.688;23.298;2023-01-25T11:14:41;2.38;;;2.05;;
10687;SDS011;5392;42.688;23.298;2023-01-25T11:17:16;2.58;;;1.92;;
10687;SDS011;5392;42.688;23.298;2023-01-25T11:19:47;3.92;;;1.73;;
10687;SDS011;5392;42.688;23.298;2023-01-25T11:24:44;1.48;;;1.33;;
10687;SDS011;5392;42.688;23.298;2023-01-25T11:29:41;2.10;;;1.85;;
10687;SDS011;5392;42.688;23.298;2023-01-25T11:32:18;2.08;;;1.55;;
10687;SDS011;5392;42.688;23.298;2023-01-25T11:34:48;2.03;;;1.92;;
10687;SDS011;5392;42.688;23.298;2023-01-25T11:42:40;1.60;;;1.50;;
10687;SDS011;5392;42.688;23.298;2023-01-25T11:48:02;1.98;;;1.88;;
10687;SDS011;5392;42.688;23.298;2023-01-25T11:56:01;1.85;;;1.75;;
10687;SDS011;5392;42.688;23.298;2023-01-25T12:11:25;2.15;;;1.27;;
10687;SDS011;5392;42.688;23.298;2023-01-25T12:29:57;1.50;;;1.40;;
10687;SDS011;5392;42.688;23.298;2023-01-25T12:32:43;2.55;;;2.35;;
10687;SDS011;5392;42.688;23.298;2023-01-25T12:35:23;4.45;;;3.38;;
10687;SDS011;5392;42.688;23.298;2023-01-25T12:37:55;3.72;;;1.65;;
10687;SDS011;5392;42.688;23.298;2023-01-25T12:43:00;2.65;;;2.00;;
10687;SDS011;5392;42.688;23.298;2023-01-25T12:45:29;2.28;;;1.83;;
10687;SDS011;5392;42.688;23.298;2023-01-25T12:48:09;2.05;;;1.88;;
10687;SDS011;5392;42.688;23.298;2023-01-25T12:51:02;2.30;;;2.10;;
10687;SDS011;5392;42.688;23.298;2023-01-25T12:53:34;2.95;;;1.92;;
10687;SDS011;5392;42.688;23.298;2023-01-25T12:56:05;3.20;;;2.13;;
10687;SDS011;5392;42.688;23.298;2023-01-25T12:58:39;2.53;;;2.33;;
10687;SDS011;5392;42.688;23.298;2023-01-25T13:01:20;1.98;;;1.67;;
10687;SDS011;5392;42.688;23.298;2023-01-25T13:12:49;1.42;;;1.30;;
10687;SDS011;5392;42.688;23.298;2023-01-25T13:20:57;3.20;;;2.22;;
10687;SDS011;5392;42.688;23.298;2023-01-25T13:28:53;1.35;;;1.23;;
10687;SDS011;5392;42.688;23.298;2023-01-25T13:37:25;2.80;;;2.53;;
10687;SDS011;5392;42.688;23.298;2023-01-25T13:42:41;3.88;;;3.58;;
10687;SDS011;5392;42.688;23.298;2023-01-25T13:45:15;2.80;;;2.60;;
10687;SDS011;5392;42.688;23.298;2023-01-25T13:47:57;3.53;;;3.03;;
10687;SDS011;5392;42.688;23.298;2023-01-25T13:50:29;2.17;;;1.88;;
10687;SDS011;5392;42.688;23.298;2023-01-25T13:55:46;2.25;;;2.15;;
10687;SDS011;5392;42.688;23.298;2023-01-25T13:58:26;3.40;;;3.10;;
10687;SDS011;5392;42.688;23.298;2023-01-25T14:01:02;3.58;;;2.65;;
10687;SDS011;5392;42.688;23.298;2023-01-25T14:06:14;5.78;;;3.85;;
10687;SDS011;5392;42.688;23.298;2023-01-25T14:08:44;3.50;;;2.65;;
10687;SDS011;5392;42.688;23.298;2023-01-25T14:11:25;2.97;;;2.65;;
10687;SDS011;5392;42.688;23.298;2023-01-25T14:13:55;2.17;;;2.00;;
10687;SDS011;5392;42.688;23.298;2023-01-25T14:16:22;4.95;;;2.97;;
10687;SDS011;5392;42.688;23.298;2023-01-25T14:18:49;1.75;;;1.20;;
10687;SDS011;5392;42.688;23.298;2023-01-25T14:21:20;6.00;;;3.47;;
10687;SDS011;5392;42.688;23.298;2023-01-25T14:23:47;6.68;;;4.20;;
10687;SDS011;5392;42.688;23.298;2023-01-25T14:26:21;3.55;;;2.67;;
10687;SDS011;5392;42.688;23.298;2023-01-25T14:28:51;2.85;;;1.95;;
10687;SDS011;5392;42.688;23.298;2023-01-25T14:31:28;7.00;;;5.05;;
10687;SDS011;5392;42.688;23.298;2023-01-25T14:33:58;3.78;;;3.17;;
10687;SDS011;5392;42.688;23.298;2023-01-25T14:36:28;2.70;;;2.30;;
10687;SDS011;5392;42.688;23.298;2023-01-25T14:38:57;4.45;;;1.40;;
10687;SDS011;5392;42.688;23.298;2023-01-25T14:41:33;3.92;;;3.63;;
10687;SDS011;5392;42.688;23.298;2023-01-25T14:44:10;5.28;;;4.68;;
10687;SDS011;5392;42.688;23.298;2023-01-25T14:46:39;6.78;;;1.92;;
10687;SDS011;5392;42.688;23.298;2023-01-25T14:51:55;4.32;;;3.45;;
10687;SDS011;5392;42.688;23.298;2023-01-25T14:54:28;5.15;;;3.80;;
10687;SDS011;5392;42.688;23.298;2023-01-25T14:56:58;3.58;;;1.70;;
10687;SDS011;5392;42.688;23.298;2023-01-25T14:59:31;3.88;;;3.58;;
10687;SDS011;5392;42.688;23.298;2023-01-25T15:10:35;2.53;;;2.33;;
10687;SDS011;5392;42.688;23.298;2023-01-25T15:21:07;6.63;;;3.85;;
10687;SDS011;5392;42.688;23.298;2023-01-25T15:23:37;2.25;;;1.85;;
10687;SDS011;5392;42.688;23.298;2023-01-25T15:28:51;2.97;;;2.72;;
10687;SDS011;5392;42.688;23.298;2023-01-25T15:31:22;4.53;;;4.03;;
10687;SDS011;5392;42.688;23.298;2023-01-25T15:33:52;5.13;;;3.47;;
10687;SDS011;5392;42.688;23.298;2023-01-25T15:36:20;4.88;;;3.42;;
10687;SDS011;5392;42.688;23.298;2023-01-25T15:38:49;2.80;;;2.03;;
10687;SDS011;5392;42.688;23.298;2023-01-25T15:41:15;6.32;;;4.75;;
10687;SDS011;5392;42.688;23.298;2023-01-25T15:43:47;4.60;;;4.20;;
10687;SDS011;5392;42.688;23.298;2023-01-25T15:46:18;4.93;;;3.45;;
10687;SDS011;5392;42.688;23.298;2023-01-25T15:48:53;4.75;;;2.47;;
10687;SDS011;5392;42.688;23.298;2023-01-25T15:51:20;5.40;;;2.38;;
10687;SDS011;5392;42.688;23.298;2023-01-25T15:53:47;3.88;;;3.05;;
10687;SDS011;5392;42.688;23.298;2023-01-25T15:56:15;3.35;;;3.03;;
10687;SDS011;5392;42.688;23.298;2023-01-25T15:58:49;3.10;;;2.03;;
10687;SDS011;5392;42.688;23.298;2023-01-25T16:01:17;6.45;;;2.28;;
10687;SDS011;5392;42.688;23.298;2023-01-25T16:03:45;3.70;;;3.03;;
10687;SDS011;5392;42.688;23.298;2023-01-25T16:09:02;2.38;;;1.48;;
10687;SDS011;5392;42.688;23.298;2023-01-25T16:11:38;3.72;;;1.80;;
10687;SDS011;5392;42.688;23.298;2023-01-25T16:14:05;3.80;;;2.58;;
10687;SDS011;5392;42.688;23.298;2023-01-25T16:16:33;3.17;;;1.80;;
10687;SDS011;5392;42.688;23.298;2023-01-25T16:19:04;5.82;;;2.05;;
10687;SDS011;5392;42.688;23.298;2023-01-25T16:21:30;6.07;;;1.95;;
10687;SDS011;5392;42.688;23.298;2023-01-25T16:23:57;2.58;;;2.38;;
10687;SDS011;5392;42.688;23.298;2023-01-25T16:26:25;3.40;;;1.42;;
10687;SDS011;5392;42.688;23.298;2023-01-25T16:28:54;5.00;;;2.85;;
10687;SDS011;5392;42.688;23.298;2023-01-25T16:31:21;2.05;;;0.63;;
10687;SDS011;5392;42.688;23.298;2023-01-25T16:33:58;3.58;;;3.10;;
10687;SDS011;5392;42.688;23.298;2023-01-25T16:36:25;3.85;;;3.17;;
10687;SDS011;5392;42.688;23.298;2023-01-25T16:38:53;5.18;;;3.25;;
10687;SDS011;5392;42.688;23.298;2023-01-25T16:41:20;4.47;;;3.10;;
10687;SDS011;5392;42.688;23.298;2023-01-25T16:43:47;4.85;;;3.03;;
10687;SDS011;5392;42.688;23.298;2023-01-25T16:46:15;1.48;;;1.20;;
10687;SDS011;5392;42.688;23.298;2023-01-25T16:48:44;2.05;;;1.33;;
10687;SDS011;5392;42.688;23.298;2023-01-25T16:51:16;3.42;;;2.55;;
10687;SDS011;5392;42.688;23.298;2023-01-25T16:53:48;8.30;;;4.10;;
10687;SDS011;5392;42.688;23.298;2023-01-25T16:56:36;2.83;;;1.67;;
10687;SDS011;5392;42.688;23.298;2023-01-25T16:59:03;2.42;;;2.20;;
10687;SDS011;5392;42.688;23.298;2023-01-25T17:01:31;2.42;;;1.77;;
10687;SDS011;5392;42.688;23.298;2023-01-25T17:03:58;3.83;;;3.00;;
10687;SDS011;5392;42.688;23.298;2023-01-25T17:06:26;6.10;;;2.42;;
10687;SDS011;5392;42.688;23.298;2023-01-25T17:08:57;3.70;;;2.05;;
10687;SDS011;5392;42.688;23.298;2023-01-25T17:11:29;3.17;;;2.03;;
10687;SDS011;5392;42.688;23.298;2023-01-25T17:13:57;4.95;;;3.47;;
10687;SDS011;5392;42.688;23.298;2023-01-25T17:16:26;4.78;;;3.13;;
10687;SDS011;5392;42.688;23.298;2023-01-25T17:18:54;2.80;;;1.88;;
10687;SDS011;5392;42.688;23.298;2023-01-25T17:21:30;2.53;;;1.63;;
10687;SDS011;5392;42.688;23.298;2023-01-25T17:23:58;3.13;;;2.58;;
10687;SDS011;5392;42.688;23.298;2023-01-25T17:26:27;6.75;;;4.53;;
10687;SDS011;5392;42.688;23.298;2023-01-25T17:28:55;6.93;;;3.40;;
10687;SDS011;5392;42.688;23.298;2023-01-25T17:31:28;7.25;;;4.65;;
10687;SDS011;5392;42.688;23.298;2023-01-25T17:34:01;2.45;;;1.38;;
10687;SDS011;5392;42.688;23.298;2023-01-25T17:36:30;9.07;;;5.10;;
10687;SDS011;5392;42.688;23.298;2023-01-25T17:39:04;8.07;;;4.03;;